Etusivu
METAR-TAF:

METAR-TAF

Lentoasemat :

Kimmirut, Nunavut, Kanada

Leveyspiiri: 62-51N, Pituuspiiri: 069-53W, korkeus merenpinnasta: 53 m

Tämänhetkinen sää

Tämä raportti tehtiin 29 minuuttia sitten, kello 13.00 UTC
Tuuli 8 kn pohjoisesta
Lämpötila -32°C
Kosteus 61%
Ilmanpaine 1001 hPa
Näkyvyys: 24.1 km
Muutamia pilviä 15000 ft:n korkeudessa
Hajanaisia pilviä 16000 ft:n korkeudessa
jääkiteitä

METAR: CYLC 201300Z 01008KT 15SM IC FEW150 SCT160 M32/M37 A2956 RMK AS2AC1 STR AFT 21Z SLP022

Aika: 08:29 (13:29 UTC)


TAF: puuttuu

Säähavainnot ja -ennusteet yli 4000 lentoasemalta (METAR- ja TAF-raportit).

Käytössä olevat sääasemat on merkitty karttaan keltaisilla ja punaisilla pisteillä.

Aseta hiiri pisteen päälle nähdäksesi sääaseman nimen.

Klikkaa sitten nähdäksesi säähavainnot ja -ennusteet.

Kartan vaihtaminen: klikkaa mustalla rastilla varustettuja vihreitä pisteitä, niin voit zoomata sisään; viivalla varustettua vihreää pistettä, niin voit zoomata ulos tai vihreitä nuolia, niin pääset viereisille kartoille.


METAR-TAF: